createdAt,value
2019-04-06T00:01:10.603Z,35.03
2019-04-06T00:03:39.734Z,37.80
2019-04-06T00:06:08.850Z,39.63
2019-04-06T00:08:38.048Z,40.40
2019-04-06T00:11:07.163Z,36.60
2019-04-06T00:13:36.371Z,40.10
2019-04-06T00:16:05.557Z,40.00
2019-04-06T00:18:34.732Z,39.33
2019-04-06T00:21:03.845Z,37.33
2019-04-06T00:23:33.049Z,35.90
2019-04-06T00:26:02.241Z,35.83
2019-04-06T00:28:31.467Z,42.53
2019-04-06T00:31:07.364Z,40.93
2019-04-06T00:33:36.515Z,36.33
2019-04-06T00:36:06.182Z,37.00
2019-04-06T00:38:35.386Z,33.37
2019-04-06T00:41:04.692Z,39.37
2019-04-06T00:43:33.896Z,36.50
2019-04-06T00:46:03.036Z,35.73
2019-04-06T00:48:32.161Z,35.43
2019-04-06T00:51:01.380Z,35.77
2019-04-06T00:53:30.563Z,36.13
2019-04-06T00:55:59.680Z,39.23
2019-04-06T00:58:28.864Z,36.63
2019-04-06T01:00:57.962Z,38.13
2019-04-06T01:03:27.223Z,35.47
2019-04-06T01:05:56.297Z,39.10
2019-04-06T01:08:25.416Z,37.37
2019-04-06T01:10:54.517Z,39.10
2019-04-06T01:13:23.628Z,36.77
2019-04-06T01:15:52.824Z,38.03
2019-04-06T01:18:21.918Z,39.17
2019-04-06T01:20:51.053Z,40.27
2019-04-06T01:23:20.175Z,38.53
2019-04-06T01:25:49.377Z,38.53
2019-04-06T01:28:18.499Z,42.77
2019-04-06T01:30:47.708Z,42.60
2019-04-06T01:33:16.836Z,42.03
2019-04-06T01:35:46.256Z,40.73
2019-04-06T01:38:15.380Z,42.10
2019-04-06T01:40:44.502Z,40.20
2019-04-06T01:43:13.623Z,41.27
2019-04-06T01:45:42.708Z,47.47
2019-04-06T01:48:11.981Z,42.90
2019-04-06T01:50:41.127Z,39.50
2019-04-06T01:53:10.247Z,40.40
2019-04-06T01:55:39.394Z,38.90
2019-04-06T01:58:08.510Z,38.67
2019-04-06T02:00:39.306Z,42.77
2019-04-06T02:03:08.440Z,40.57
2019-04-06T02:05:37.565Z,35.60
2019-04-06T02:08:06.657Z,40.30
2019-04-06T02:10:35.775Z,37.20
2019-04-06T02:13:04.879Z,39.73
2019-04-06T02:15:34.149Z,38.30
2019-04-06T02:18:03.239Z,39.17
2019-04-06T02:20:32.376Z,38.67
2019-04-06T02:23:01.513Z,41.20
2019-04-06T02:25:30.656Z,39.53
2019-04-06T02:27:59.870Z,36.20
2019-04-06T02:30:35.215Z,39.83
2019-04-06T02:33:32.274Z,36.70
2019-04-06T02:36:10.240Z,37.70
2019-04-06T02:38:51.280Z,37.47
2019-04-06T02:41:39.345Z,38.07
2019-04-06T02:44:08.422Z,36.77
2019-04-06T02:46:37.693Z,36.60
2019-04-06T02:49:06.828Z,38.73
2019-04-06T02:51:36.143Z,37.03
2019-04-06T02:54:05.499Z,38.63
2019-04-06T02:56:45.447Z,31.33
2019-04-06T02:59:05.630Z,35.07
2019-04-06T03:01:34.764Z,33.20
2019-04-06T03:04:03.900Z,33.20
2019-04-06T03:06:33.014Z,35.20
2019-04-06T03:09:02.125Z,33.53
2019-04-06T03:11:31.406Z,33.60
2019-04-06T03:14:00.490Z,32.63
2019-04-06T03:16:29.793Z,33.47
2019-04-06T03:18:58.921Z,35.93
2019-04-06T03:21:28.058Z,34.07
2019-04-06T03:23:57.223Z,31.27
2019-04-06T03:26:26.352Z,28.87
2019-04-06T03:28:55.739Z,33.63
2019-04-06T03:31:27.759Z,34.70
2019-04-06T03:33:55.777Z,37.97
2019-04-06T03:36:24.907Z,33.87
2019-04-06T03:38:53.977Z,30.67
2019-04-06T03:41:23.090Z,38.43
2019-04-06T03:43:52.224Z,33.80
2019-04-06T03:46:21.572Z,34.80
2019-04-06T03:48:50.697Z,33.40
2019-04-06T03:51:19.829Z,31.63
2019-04-06T03:53:48.951Z,31.10
2019-04-06T03:56:18.079Z,34.30
2019-04-06T03:58:47.185Z,32.30
2019-04-06T04:01:16.279Z,35.27
2019-04-06T04:03:45.511Z,35.27
2019-04-06T04:06:14.574Z,33.20
2019-04-06T04:08:43.728Z,30.90
2019-04-06T04:11:12.798Z,34.77
2019-04-06T04:13:41.938Z,31.80
2019-04-06T04:16:11.025Z,33.43
2019-04-06T04:18:40.284Z,30.67
2019-04-06T04:21:09.427Z,36.23
2019-04-06T04:23:38.649Z,35.03
2019-04-06T04:26:07.784Z,35.07
2019-04-06T04:28:36.886Z,36.17
2019-04-06T04:31:06.010Z,35.80
2019-04-06T04:33:35.177Z,35.27
2019-04-06T04:36:04.278Z,38.17
2019-04-06T04:38:33.419Z,33.70
2019-04-06T04:41:02.581Z,31.37
2019-04-06T04:43:32.806Z,33.53
2019-04-06T04:46:01.880Z,35.90
2019-04-06T04:48:31.197Z,37.47
2019-04-06T04:51:00.328Z,34.93
2019-04-06T04:53:29.497Z,33.70
2019-04-06T04:55:58.600Z,36.23
2019-04-06T04:58:27.825Z,33.23
2019-04-06T05:00:56.930Z,34.87
2019-04-06T05:03:26.087Z,30.57
2019-04-06T05:05:55.198Z,37.40
2019-04-06T05:08:24.352Z,38.80
2019-04-06T05:10:53.425Z,35.50
2019-04-06T05:13:22.530Z,35.53
2019-04-06T05:16:22.736Z,35.20
2019-04-06T05:18:51.938Z,36.07
2019-04-06T05:21:20.996Z,36.30
2019-04-06T05:23:50.141Z,33.23
2019-04-06T05:26:19.218Z,36.10
2019-04-06T05:28:48.318Z,34.40
2019-04-06T05:31:17.403Z,35.17
2019-04-06T05:33:46.532Z,36.37
2019-04-06T05:36:15.720Z,34.90
2019-04-06T05:38:44.806Z,32.57
2019-04-06T05:41:13.956Z,38.03
2019-04-06T05:43:43.077Z,35.10
2019-04-06T05:46:12.178Z,35.53
2019-04-06T05:48:41.317Z,36.07
2019-04-06T05:51:10.429Z,33.83
2019-04-06T05:53:39.745Z,34.67
2019-04-06T05:56:08.987Z,29.67
2019-04-06T05:58:39.915Z,33.40
2019-04-06T06:01:11.037Z,29.80
2019-04-06T06:03:41.184Z,33.27
2019-04-06T06:06:12.585Z,33.27
2019-04-06T06:08:41.673Z,29.53
2019-04-06T06:11:10.762Z,31.03
2019-04-06T06:13:40.068Z,30.70
2019-04-06T06:16:11.523Z,33.47
2019-04-06T06:18:42.694Z,29.07
2019-04-06T06:21:14.720Z,29.27
2019-04-06T06:23:44.219Z,30.30
2019-04-06T06:26:13.588Z,28.27
2019-04-06T06:28:42.807Z,32.83
2019-04-06T06:31:11.969Z,32.63
2019-04-06T06:33:41.053Z,28.43
2019-04-06T06:36:10.212Z,30.80
2019-04-06T06:38:39.467Z,31.50
2019-04-06T06:41:08.668Z,29.73
2019-04-06T06:43:37.899Z,30.13
2019-04-06T06:46:07.007Z,31.20
2019-04-06T06:48:36.190Z,31.80
2019-04-06T06:51:05.462Z,31.73
2019-04-06T06:53:34.668Z,28.40
2019-04-06T06:56:03.811Z,28.77
2019-04-06T06:58:33.031Z,29.77
2019-04-06T07:01:03.452Z,30.07
2019-04-06T07:03:32.861Z,31.60
2019-04-06T07:06:02.042Z,29.77
2019-04-06T07:08:31.169Z,31.20
2019-04-06T07:11:00.332Z,34.57
2019-04-06T07:13:32.253Z,29.37
2019-04-06T07:16:01.483Z,29.97
2019-04-06T07:18:30.794Z,30.87
2019-04-06T07:20:59.941Z,30.67
2019-04-06T07:23:29.042Z,34.87
2019-04-06T07:25:59.048Z,32.10
2019-04-06T07:28:37.586Z,30.33
2019-04-06T07:30:59.438Z,28.57
2019-04-06T07:33:28.780Z,30.40
2019-04-06T07:35:58.202Z,32.20
2019-04-06T07:38:27.459Z,31.40
2019-04-06T07:40:56.611Z,32.87
2019-04-06T07:43:25.813Z,35.43
2019-04-06T07:45:55.244Z,34.37
2019-04-06T07:48:24.491Z,34.90
2019-04-06T07:50:54.381Z,32.47
2019-04-06T07:53:24.286Z,29.67
2019-04-06T07:55:53.459Z,30.97
2019-04-06T07:58:22.798Z,29.23
2019-04-06T08:00:52.018Z,34.17
2019-04-06T08:03:21.185Z,31.53
2019-04-06T08:05:50.331Z,30.07
2019-04-06T08:08:19.469Z,32.90
2019-04-06T08:10:48.648Z,28.73
2019-04-06T08:13:18.003Z,30.03
2019-04-06T08:15:47.186Z,31.07
2019-04-06T08:18:16.896Z,29.47
2019-04-06T08:20:46.092Z,29.37
2019-04-06T08:23:15.204Z,29.70
2019-04-06T08:25:44.298Z,33.77
2019-04-06T08:28:13.477Z,34.87
2019-04-06T08:30:46.008Z,32.33
2019-04-06T08:33:13.497Z,31.70
2019-04-06T08:35:42.714Z,31.70
2019-04-06T08:38:11.874Z,30.17
2019-04-06T08:40:41.108Z,32.60
2019-04-06T08:43:10.320Z,33.30
2019-04-06T08:45:39.527Z,30.73
2019-04-06T08:48:08.751Z,31.60
2019-04-06T08:50:39.738Z,34.30
2019-04-06T08:53:08.999Z,34.43
2019-04-06T08:55:38.985Z,36.50
2019-04-06T08:58:09.239Z,34.97
2019-04-06T09:00:38.349Z,32.33
2019-04-06T09:03:07.494Z,31.63
2019-04-06T09:05:36.896Z,34.07
2019-04-06T09:08:06.100Z,38.13
2019-04-06T09:10:35.350Z,34.77
2019-04-06T09:13:04.527Z,35.97
2019-04-06T09:15:33.717Z,33.53
2019-04-06T09:18:02.975Z,34.37
2019-04-06T09:20:32.449Z,33.93
2019-04-06T09:23:02.151Z,34.13
2019-04-06T09:25:32.589Z,35.03
2019-04-06T09:28:02.189Z,35.37
2019-04-06T09:30:31.931Z,37.03
2019-04-06T09:33:01.156Z,38.57
2019-04-06T09:35:30.650Z,34.77
2019-04-06T09:38:00.072Z,39.23
2019-04-06T09:40:29.260Z,38.30
2019-04-06T09:42:58.637Z,37.87
2019-04-06T09:45:53.109Z,36.23
2019-04-06T09:48:36.289Z,37.67
2019-04-06T09:51:27.478Z,37.63
2019-04-06T09:54:21.770Z,35.27
2019-04-06T09:57:10.004Z,31.70
2019-04-06T10:00:10.082Z,36.23
2019-04-06T10:02:58.098Z,34.13
2019-04-06T10:05:48.571Z,35.90
2019-04-06T10:08:48.687Z,39.57
2019-04-06T10:11:35.591Z,35.90
2019-04-06T10:14:26.776Z,35.47
2019-04-06T10:17:23.746Z,37.93
2019-04-06T10:20:10.624Z,34.97
2019-04-06T10:22:57.358Z,39.23
2019-04-06T10:25:57.381Z,34.73
2019-04-06T10:28:43.915Z,36.53
2019-04-06T10:31:31.934Z,35.47
2019-04-06T10:34:28.799Z,35.70
2019-04-06T10:37:15.890Z,38.93
2019-04-06T10:40:12.022Z,37.90
2019-04-06T10:43:01.999Z,37.73
2019-04-06T10:45:53.811Z,38.23
2019-04-06T10:48:44.653Z,38.70
2019-04-06T10:51:35.546Z,36.63
2019-04-06T10:54:28.088Z,36.57
2019-04-06T10:57:17.436Z,33.27
2019-04-06T11:00:02.304Z,37.77
2019-04-06T11:02:46.289Z,33.73
2019-04-06T11:05:46.265Z,38.37
2019-04-06T11:08:34.299Z,38.60
2019-04-06T11:11:18.046Z,32.67
2019-04-06T11:14:02.069Z,35.67
2019-04-06T11:16:56.018Z,34.70
2019-04-06T11:20:02.039Z,36.47
2019-04-06T11:22:50.136Z,34.67
2019-04-06T11:25:56.064Z,31.17
2019-04-06T11:28:37.229Z,35.80
2019-04-06T11:31:23.866Z,35.77
2019-04-06T11:34:07.303Z,33.03
2019-04-06T11:36:53.842Z,32.50
2019-04-06T11:39:39.975Z,31.73
2019-04-06T11:42:30.919Z,34.23
2019-04-06T11:45:19.040Z,35.27
2019-04-06T11:48:12.539Z,33.73
2019-04-06T11:53:52.483Z,33.33
2019-04-06T11:56:38.987Z,38.77
2019-04-06T11:59:19.570Z,34.87
2019-04-06T12:01:56.837Z,32.80
2019-04-06T12:04:38.839Z,34.27
2019-04-06T12:07:44.908Z,34.07
2019-04-06T12:10:28.253Z,31.63
2019-04-06T12:13:19.207Z,34.97
2019-04-06T12:16:13.367Z,32.47
2019-04-06T12:18:54.708Z,30.17
2019-04-06T12:21:34.249Z,33.10
2019-04-06T12:24:25.869Z,30.87
2019-04-06T12:27:25.942Z,26.40
2019-04-06T12:30:05.289Z,28.13
2019-04-06T12:32:43.766Z,30.37
2019-04-06T12:35:30.240Z,28.23
2019-04-06T12:38:25.374Z,27.83
2019-04-06T12:41:12.311Z,27.57
2019-04-06T12:44:03.431Z,27.80
2019-04-06T12:46:49.925Z,26.73
2019-04-06T12:49:27.651Z,27.53
2019-04-06T12:52:11.448Z,26.43
2019-04-06T12:55:03.815Z,25.57
2019-04-06T12:57:53.444Z,25.53
2019-04-06T13:00:54.359Z,26.30
2019-04-06T13:03:49.497Z,26.17
2019-04-06T13:06:44.165Z,26.00
2019-04-06T13:09:26.825Z,25.20
2019-04-06T13:12:02.472Z,25.10
2019-04-06T13:14:49.079Z,27.00
2019-04-06T13:17:43.058Z,32.43
2019-04-06T13:20:35.765Z,27.67
2019-04-06T13:23:26.933Z,25.67
2019-04-06T13:26:04.273Z,27.47
2019-04-06T13:28:57.959Z,26.93
2019-04-06T13:31:46.142Z,25.57
2019-04-06T13:34:34.208Z,23.53
2019-04-06T13:37:19.377Z,28.03
2019-04-06T13:40:13.653Z,25.63
2019-04-06T13:43:21.221Z,28.77
2019-04-06T13:46:07.938Z,25.67
2019-04-06T13:48:56.273Z,23.37
2019-04-06T13:51:36.231Z,24.63
2019-04-06T13:54:39.287Z,24.70
2019-04-06T13:57:39.173Z,23.97
2019-04-06T14:00:20.515Z,21.17
2019-04-06T14:03:14.826Z,22.07
2019-04-06T14:06:15.053Z,21.10
2019-04-06T14:09:06.660Z,23.03
2019-04-06T14:12:09.992Z,24.20
2019-04-06T14:14:58.048Z,20.70
2019-04-06T14:17:44.504Z,23.17
2019-04-06T14:20:38.886Z,22.20
2019-04-06T14:23:32.933Z,19.83
2019-04-06T14:26:32.982Z,24.40
2019-04-06T14:29:18.383Z,21.43
2019-04-06T14:32:09.266Z,23.93
2019-04-06T14:35:06.125Z,20.93
2019-04-06T14:37:57.225Z,20.80
2019-04-06T14:41:03.755Z,20.40
2019-04-06T14:43:50.482Z,20.03
2019-04-06T14:46:38.134Z,23.30
2019-04-06T14:49:30.733Z,23.13
2019-04-06T14:52:06.132Z,23.87
2019-04-06T14:54:41.556Z,22.23
2019-04-06T14:57:25.888Z,19.57
2019-04-06T15:00:11.879Z,19.57
2019-04-06T15:03:11.939Z,19.07
2019-04-06T15:06:02.685Z,18.23
2019-04-06T15:08:45.573Z,18.87
2019-04-06T15:11:37.206Z,17.83
2019-04-06T15:14:25.340Z,20.20
2019-04-06T15:17:12.901Z,17.67
2019-04-06T15:19:59.759Z,17.83
2019-04-06T15:22:50.581Z,17.97
2019-04-06T15:25:38.334Z,18.67
2019-04-06T15:28:26.278Z,20.10
2019-04-06T15:31:23.398Z,19.43
2019-04-06T15:34:09.863Z,18.07
2019-04-06T15:37:01.061Z,19.90
2019-04-06T15:39:52.043Z,18.93
2019-04-06T15:42:41.612Z,19.80
2019-04-06T15:45:29.696Z,20.03
2019-04-06T15:48:37.450Z,18.37
2019-04-06T15:51:14.530Z,18.20
2019-04-06T15:54:01.596Z,17.43
2019-04-06T15:56:40.611Z,17.37
2019-04-06T15:59:37.826Z,19.17
2019-04-06T16:02:22.653Z,15.57
2019-04-06T16:05:00.773Z,18.03
2019-04-06T16:07:52.618Z,19.17
2019-04-06T16:10:46.981Z,18.30
2019-04-06T16:13:23.742Z,19.43
2019-04-06T16:16:12.060Z,17.97
2019-04-06T16:18:54.181Z,19.03
2019-04-06T16:21:41.038Z,17.57
2019-04-06T16:24:29.039Z,21.60
2019-04-06T16:27:17.227Z,19.77
2019-04-06T16:30:11.051Z,21.43
2019-04-06T16:32:49.059Z,18.60
2019-04-06T16:35:49.455Z,19.93
2019-04-06T16:38:30.175Z,23.50
2019-04-06T16:41:24.040Z,22.30
2019-04-06T16:44:12.244Z,21.00
2019-04-06T16:47:06.091Z,19.87
2019-04-06T16:49:51.149Z,20.63
2019-04-06T16:52:37.119Z,18.70
2019-04-06T16:55:17.710Z,18.00
2019-04-06T16:58:17.734Z,20.47
2019-04-06T17:01:08.589Z,21.37
2019-04-06T17:03:56.763Z,19.13
2019-04-06T17:06:47.910Z,20.70
2019-04-06T17:09:34.987Z,20.63
2019-04-06T17:12:23.712Z,20.23
2019-04-06T17:15:16.018Z,19.17
2019-04-06T17:18:10.340Z,22.67
2019-04-06T17:20:54.212Z,19.60
2019-04-06T17:23:34.250Z,18.03
2019-04-06T17:26:20.844Z,18.50
2019-04-06T17:29:17.893Z,19.07
2019-04-06T17:31:51.985Z,18.70
2019-04-06T17:34:56.679Z,21.17
2019-04-06T17:37:33.343Z,19.70
2019-04-06T17:40:21.368Z,17.40
2019-04-06T17:43:04.662Z,19.43
2019-04-06T17:45:55.651Z,18.73
2019-04-06T17:48:42.955Z,22.00
2019-04-06T17:51:36.664Z,23.63
2019-04-06T17:54:24.925Z,31.77
2019-04-06T17:57:18.034Z,35.07
2019-04-06T18:00:11.256Z,30.30
2019-04-06T18:03:10.238Z,33.63
2019-04-06T18:05:52.851Z,32.40
2019-04-06T18:08:36.477Z,33.53
2019-04-06T18:11:15.614Z,35.97
2019-04-06T18:13:52.966Z,37.30
2019-04-06T18:16:37.692Z,35.40
2019-04-06T18:19:08.405Z,34.20
2019-04-06T18:21:38.426Z,36.30
2019-04-06T18:24:07.550Z,44.37
2019-04-06T18:26:36.635Z,39.73
2019-04-06T18:29:06.186Z,39.50
2019-04-06T18:31:52.718Z,39.17
2019-04-06T18:34:21.844Z,40.07
2019-04-06T18:37:10.102Z,43.80
2019-04-06T18:39:39.330Z,37.33
2019-04-06T18:42:11.822Z,40.33
2019-04-06T18:44:41.065Z,39.30
2019-04-06T18:47:11.075Z,38.23
2019-04-06T18:49:42.460Z,36.77
2019-04-06T18:52:14.124Z,40.20
2019-04-06T18:54:43.876Z,41.00
2019-04-06T18:57:12.947Z,38.30
2019-04-06T18:59:42.605Z,41.03
2019-04-06T19:02:11.920Z,38.07
2019-04-06T19:04:41.042Z,41.80
2019-04-06T19:07:10.303Z,40.37
2019-04-06T19:09:39.708Z,43.57
2019-04-06T19:12:09.019Z,43.70
2019-04-06T19:14:38.390Z,32.83
2019-04-06T19:17:07.484Z,38.17
2019-04-06T19:19:36.624Z,41.37
2019-04-06T19:22:05.869Z,44.67
2019-04-06T19:24:35.472Z,39.73
2019-04-06T19:27:04.623Z,38.90
2019-04-06T19:29:33.971Z,38.87
2019-04-06T19:32:04.462Z,46.80
2019-04-06T19:34:33.703Z,45.47
2019-04-06T19:37:03.986Z,43.47
2019-04-06T19:39:33.146Z,44.70
2019-04-06T19:42:02.735Z,41.93
2019-04-06T19:44:31.898Z,47.90
2019-04-06T19:47:01.343Z,41.10
2019-04-06T19:49:30.695Z,43.43
2019-04-06T19:51:59.964Z,45.77
2019-04-06T19:54:29.825Z,43.40
2019-04-06T19:57:02.034Z,43.70
2019-04-06T19:59:33.845Z,47.00
2019-04-06T20:02:03.097Z,44.90
2019-04-06T20:04:32.421Z,48.93
2019-04-06T20:07:02.577Z,46.53
2019-04-06T20:09:31.991Z,47.10
2019-04-06T20:12:06.941Z,47.30
2019-04-06T20:14:31.952Z,48.50
2019-04-06T20:17:02.046Z,44.93
2019-04-06T20:19:31.558Z,45.03
2019-04-06T20:22:00.845Z,51.00
2019-04-06T20:24:30.067Z,49.00
2019-04-06T20:26:59.228Z,48.07
2019-04-06T20:29:28.557Z,54.63
2019-04-06T20:31:58.706Z,48.03
2019-04-06T20:34:27.934Z,54.17
2019-04-06T20:36:57.170Z,50.67
2019-04-06T20:39:26.254Z,51.93
2019-04-06T20:41:55.453Z,50.70
2019-04-06T20:44:25.123Z,52.43
2019-04-06T20:46:55.824Z,54.83
2019-04-06T20:49:24.891Z,52.40
2019-04-06T20:51:54.335Z,57.40
2019-04-06T20:54:24.548Z,57.27
2019-04-06T20:56:57.494Z,53.33
2019-04-06T20:59:24.537Z,51.97
2019-04-06T21:01:54.327Z,49.83
2019-04-06T21:04:23.676Z,54.57
2019-04-06T21:06:53.246Z,57.17
2019-04-06T21:09:22.468Z,51.53
2019-04-06T21:11:53.616Z,54.20
2019-04-06T21:14:22.379Z,52.13
2019-04-06T21:16:51.510Z,53.67
2019-04-06T21:19:20.584Z,53.77
2019-04-06T21:21:50.329Z,59.87
2019-04-06T21:24:20.711Z,58.97
2019-04-06T21:26:50.051Z,56.23
2019-04-06T21:29:20.043Z,57.37
2019-04-06T21:31:49.787Z,58.00
2019-04-06T21:34:19.397Z,56.00
2019-04-06T21:36:49.613Z,64.70
2019-04-06T21:39:18.886Z,57.97
2019-04-06T21:41:49.956Z,67.30
2019-04-06T21:44:20.355Z,61.30
2019-04-06T21:46:49.585Z,57.17
2019-04-06T21:49:18.975Z,54.97
2019-04-06T21:51:48.715Z,55.67
2019-04-06T21:54:17.791Z,60.30
2019-04-06T21:56:46.942Z,55.60
2019-04-06T21:59:16.803Z,53.87
2019-04-06T22:01:46.505Z,50.50
2019-04-06T22:04:23.717Z,50.90
2019-04-06T22:06:46.497Z,50.90
2019-04-06T22:09:16.345Z,49.27
2019-04-06T22:11:45.556Z,54.27
2019-04-06T22:14:14.916Z,54.77
2019-04-06T22:16:44.595Z,59.80
2019-04-06T22:19:13.743Z,51.30
2019-04-06T22:21:42.983Z,55.27
2019-04-06T22:24:12.116Z,52.57
2019-04-06T22:26:41.217Z,52.03
2019-04-06T22:29:10.353Z,51.33
2019-04-06T22:31:39.518Z,51.57
2019-04-06T22:34:09.258Z,49.90
2019-04-06T22:36:38.597Z,52.03
2019-04-06T22:39:09.050Z,54.67
2019-04-06T22:41:38.922Z,49.07
2019-04-06T22:44:08.569Z,51.60
2019-04-06T22:46:38.085Z,51.53
2019-04-06T22:49:07.807Z,55.67
2019-04-06T22:51:37.061Z,52.27
2019-04-06T22:54:06.766Z,55.53
2019-04-06T22:56:36.267Z,54.60
2019-04-06T22:59:05.468Z,54.10
2019-04-06T23:01:36.899Z,57.87
2019-04-06T23:04:27.615Z,51.40
2019-04-06T23:07:06.142Z,53.03
2019-04-06T23:09:35.326Z,53.17
2019-04-06T23:12:04.391Z,53.67
2019-04-06T23:14:35.070Z,55.03
2019-04-06T23:17:04.178Z,60.83
2019-04-06T23:19:33.711Z,55.30
2019-04-06T23:22:02.800Z,52.60
2019-04-06T23:24:32.952Z,53.33
2019-04-06T23:27:02.395Z,53.83
2019-04-06T23:29:31.485Z,53.83
2019-04-06T23:32:01.064Z,46.40
2019-04-06T23:34:30.343Z,53.93
2019-04-06T23:37:00.646Z,49.50
2019-04-06T23:39:29.888Z,52.60
2019-04-06T23:41:59.013Z,53.60
2019-04-06T23:44:28.161Z,53.17
2019-04-06T23:46:57.660Z,51.00
2019-04-06T23:49:27.041Z,49.50
2019-04-06T23:51:56.722Z,55.13
2019-04-06T23:54:26.366Z,48.37
2019-04-06T23:56:55.563Z,49.67
2019-04-06T23:59:24.769Z,49.27
